createdAt,value
2018-04-24T00:00:33.958Z,0.00
2018-04-24T00:01:33.939Z,0.00
2018-04-24T00:02:33.922Z,0.00
2018-04-24T00:03:33.904Z,0.00
2018-04-24T00:04:33.887Z,0.00
2018-04-24T00:05:33.873Z,0.00
2018-04-24T00:06:33.855Z,0.00
2018-04-24T00:07:33.845Z,0.00
2018-04-24T00:08:33.821Z,0.00
2018-04-24T00:09:33.809Z,0.00
2018-04-24T00:10:33.805Z,0.00
2018-04-24T00:11:33.773Z,0.00
2018-04-24T00:12:33.762Z,0.00
2018-04-24T00:13:33.738Z,0.00
2018-04-24T00:14:33.721Z,0.00
2018-04-24T00:15:33.705Z,0.00
2018-04-24T00:16:33.694Z,0.00
2018-04-24T00:17:33.672Z,0.00
2018-04-24T00:18:33.656Z,0.00
2018-04-24T00:19:33.641Z,0.00
2018-04-24T00:20:33.620Z,0.00
2018-04-24T00:21:33.604Z,0.00
2018-04-24T00:22:33.592Z,0.00
2018-04-24T00:23:33.570Z,0.00
2018-04-24T00:24:33.558Z,0.00
2018-04-24T00:25:33.546Z,0.00
2018-04-24T00:26:33.520Z,0.00
2018-04-24T00:27:33.513Z,0.00
2018-04-24T00:28:33.487Z,0.00
2018-04-24T00:29:33.470Z,0.00
2018-04-24T00:30:33.456Z,0.00
2018-04-24T00:31:33.436Z,0.00
2018-04-24T00:32:33.420Z,0.00
2018-04-24T00:33:33.407Z,0.00
2018-04-24T00:34:33.389Z,0.00
2018-04-24T00:35:33.371Z,0.00
2018-04-24T00:36:33.352Z,0.00
2018-04-24T00:37:33.336Z,0.00
2018-04-24T00:38:33.321Z,0.00
2018-04-24T00:39:33.313Z,0.00
2018-04-24T00:40:33.287Z,0.00
2018-04-24T00:41:33.272Z,0.00
2018-04-24T00:42:33.272Z,0.00
2018-04-24T00:43:33.242Z,0.00
2018-04-24T00:44:33.222Z,0.00
2018-04-24T00:45:33.207Z,0.00
2018-04-24T00:46:33.188Z,0.00
2018-04-24T00:47:33.171Z,0.00
2018-04-24T00:48:33.156Z,0.00
2018-04-24T00:49:33.139Z,0.00
2018-04-24T00:50:33.119Z,0.00
2018-04-24T00:51:33.112Z,0.00
2018-04-24T00:52:33.092Z,0.00
2018-04-24T00:53:33.072Z,0.00
2018-04-24T00:54:33.053Z,0.00
2018-04-24T00:55:33.037Z,0.00
2018-04-24T00:56:33.022Z,0.00
2018-04-24T00:57:33.002Z,0.00
2018-04-24T00:58:32.989Z,0.00
2018-04-24T00:59:32.968Z,0.00
2018-04-24T01:00:32.951Z,0.00
2018-04-24T01:01:32.935Z,0.00
2018-04-24T01:02:32.921Z,0.00
2018-04-24T01:03:32.902Z,0.00
2018-04-24T01:04:32.887Z,0.00
2018-04-24T01:05:32.884Z,0.00
2018-04-24T01:06:32.852Z,0.00
2018-04-24T01:07:32.832Z,0.00
2018-04-24T01:08:32.817Z,0.00
2018-04-24T01:09:32.801Z,0.00
2018-04-24T01:10:32.781Z,0.00
2018-04-24T01:11:32.761Z,0.00
2018-04-24T01:12:32.745Z,0.00
2018-04-24T01:13:32.730Z,0.00
2018-04-24T01:14:32.712Z,0.00
2018-04-24T01:15:32.703Z,0.00
2018-04-24T01:16:32.682Z,0.00
2018-04-24T01:17:32.661Z,0.00
2018-04-24T01:18:32.642Z,0.00
2018-04-24T01:19:32.629Z,0.00
2018-04-24T01:20:32.612Z,0.00
2018-04-24T01:21:32.595Z,0.00
2018-04-24T01:22:32.575Z,0.00
2018-04-24T01:23:32.556Z,0.00
2018-04-24T01:24:32.542Z,0.00
2018-04-24T01:25:32.526Z,0.00
2018-04-24T01:26:32.510Z,0.00
2018-04-24T01:27:32.491Z,0.00
2018-04-24T01:28:32.472Z,0.00
2018-04-24T01:29:32.456Z,0.00
2018-04-24T01:30:32.439Z,0.00
2018-04-24T01:31:32.422Z,0.00
2018-04-24T01:32:32.403Z,0.00
2018-04-24T01:33:32.384Z,0.00
2018-04-24T01:34:32.366Z,0.00
2018-04-24T01:35:32.353Z,0.00
2018-04-24T01:36:32.334Z,0.00
2018-04-24T01:37:32.325Z,0.00
2018-04-24T01:38:32.298Z,0.00
2018-04-24T01:39:32.284Z,0.00
2018-04-24T01:40:32.267Z,0.00
2018-04-24T01:41:32.249Z,0.00
2018-04-24T01:42:32.226Z,0.00
2018-04-24T01:43:32.211Z,0.00
2018-04-24T01:44:32.194Z,0.00
2018-04-24T01:45:32.178Z,0.00
2018-04-24T01:46:32.164Z,0.00
2018-04-24T01:47:32.140Z,0.00
2018-04-24T01:48:32.124Z,0.00
2018-04-24T01:49:32.107Z,0.00
2018-04-24T01:50:32.095Z,0.00
2018-04-24T01:51:32.073Z,0.00
2018-04-24T01:52:32.059Z,0.00
2018-04-24T01:53:32.037Z,0.00
2018-04-24T01:54:32.019Z,0.00
2018-04-24T01:55:32.005Z,0.00
2018-04-24T01:56:31.993Z,0.00
2018-04-24T01:57:31.970Z,0.00
2018-04-24T01:58:31.959Z,0.00
2018-04-24T01:59:31.938Z,0.00
2018-04-24T02:00:31.920Z,0.00
2018-04-24T02:01:31.903Z,0.00
2018-04-24T02:02:31.883Z,0.00
2018-04-24T02:03:31.870Z,0.00
2018-04-24T02:04:31.848Z,0.00
2018-04-24T02:05:31.832Z,0.00
2018-04-24T02:06:31.813Z,0.00
2018-04-24T02:07:31.801Z,0.00
2018-04-24T02:08:31.783Z,0.00
2018-04-24T02:09:31.760Z,0.00
2018-04-24T02:10:31.749Z,0.00
2018-04-24T02:11:31.726Z,0.00
2018-04-24T02:12:31.713Z,0.00
2018-04-24T02:13:31.693Z,0.00
2018-04-24T02:14:31.672Z,0.00
2018-04-24T02:15:31.658Z,0.00
2018-04-24T02:16:31.642Z,0.00
2018-04-24T02:17:31.623Z,0.00
2018-04-24T02:18:31.607Z,0.00
2018-04-24T02:19:31.597Z,0.00
2018-04-24T02:20:31.570Z,0.00
2018-04-24T02:21:31.556Z,0.00
2018-04-24T02:22:31.544Z,0.00
2018-04-24T02:23:31.523Z,0.00
2018-04-24T02:24:31.504Z,0.00
2018-04-24T02:25:31.488Z,0.00
2018-04-24T02:26:31.470Z,0.00
2018-04-24T02:27:31.456Z,0.00
2018-04-24T02:28:31.433Z,0.00
2018-04-24T02:29:31.420Z,0.00
2018-04-24T02:30:31.398Z,0.00
2018-04-24T02:31:31.382Z,0.00
2018-04-24T02:32:31.369Z,0.00
2018-04-24T02:33:31.347Z,0.00
2018-04-24T02:34:31.333Z,0.00
2018-04-24T02:35:31.312Z,0.00
2018-04-24T02:36:31.300Z,0.00
2018-04-24T02:37:31.281Z,0.00
2018-04-24T02:38:31.260Z,0.00
2018-04-24T02:39:31.243Z,0.00
2018-04-24T02:40:31.241Z,0.00
2018-04-24T02:41:31.209Z,0.00
2018-04-24T02:42:31.188Z,0.00
2018-04-24T02:43:31.173Z,0.00
2018-04-24T02:44:31.156Z,0.00
2018-04-24T02:45:31.140Z,0.00
2018-04-24T02:46:31.121Z,0.00
2018-04-24T02:47:31.102Z,0.00
2018-04-24T02:48:31.082Z,0.00
2018-04-24T02:49:31.071Z,0.00
2018-04-24T02:50:31.049Z,0.00
2018-04-24T02:51:31.031Z,0.00
2018-04-24T02:52:31.020Z,0.00
2018-04-24T02:53:30.999Z,0.00
2018-04-24T02:54:30.977Z,0.00
2018-04-24T02:55:30.963Z,0.00
2018-04-24T02:56:30.943Z,0.00
2018-04-24T02:57:30.934Z,0.00
2018-04-24T02:58:30.908Z,0.00
2018-04-24T02:59:30.892Z,0.00
2018-04-24T03:00:30.872Z,0.00
2018-04-24T03:01:30.855Z,0.00
2018-04-24T03:02:30.837Z,0.00
2018-04-24T03:03:30.824Z,0.00
2018-04-24T03:04:30.802Z,0.00
2018-04-24T03:05:30.784Z,0.00
2018-04-24T03:06:30.768Z,0.00
2018-04-24T03:07:30.751Z,0.00
2018-04-24T03:08:30.731Z,0.00
2018-04-24T03:09:30.711Z,0.00
2018-04-24T03:10:30.692Z,0.00
2018-04-24T03:11:30.687Z,0.00
2018-04-24T03:12:30.661Z,0.00
2018-04-24T03:13:30.642Z,0.00
2018-04-24T03:14:30.628Z,0.00
2018-04-24T03:15:30.612Z,0.00
2018-04-24T03:16:30.602Z,0.00
2018-04-24T03:17:30.570Z,0.00
2018-04-24T03:18:30.552Z,0.00
2018-04-24T03:19:30.532Z,0.00
2018-04-24T03:20:30.522Z,0.00
2018-04-24T03:21:30.498Z,0.00
2018-04-24T03:22:30.484Z,0.00
2018-04-24T03:23:30.467Z,0.00
2018-04-24T03:24:30.443Z,0.00
2018-04-24T03:25:30.430Z,0.00
2018-04-24T03:26:30.408Z,0.00
2018-04-24T03:27:30.396Z,0.00
2018-04-24T03:28:30.382Z,0.00
2018-04-24T03:29:30.356Z,0.00
2018-04-24T03:30:30.341Z,0.00
2018-04-24T03:31:30.322Z,0.00
2018-04-24T03:32:30.301Z,0.00
2018-04-24T03:33:30.285Z,0.00
2018-04-24T03:34:30.268Z,0.00
2018-04-24T03:35:30.247Z,0.00
2018-04-24T03:36:30.231Z,0.00
2018-04-24T03:37:30.214Z,0.00
2018-04-24T03:38:30.195Z,0.00
2018-04-24T03:39:30.181Z,0.00
2018-04-24T03:40:30.163Z,0.00
2018-04-24T03:41:30.143Z,0.00
2018-04-24T03:42:30.123Z,0.00
2018-04-24T03:43:30.103Z,0.00
2018-04-24T03:44:30.089Z,0.00
2018-04-24T03:45:30.068Z,0.00
2018-04-24T03:46:30.050Z,0.00
2018-04-24T03:47:30.036Z,0.00
2018-04-24T03:48:30.015Z,0.00
2018-04-24T03:49:30.004Z,0.00
2018-04-24T03:50:29.980Z,0.00
2018-04-24T03:51:29.959Z,0.00
2018-04-24T03:52:29.943Z,0.00
2018-04-24T03:53:29.926Z,0.00
2018-04-24T03:54:29.904Z,4.00
2018-04-24T03:55:29.895Z,4.00
2018-04-24T03:56:29.873Z,0.00
2018-04-24T03:57:29.851Z,0.00
2018-04-24T03:58:29.832Z,0.00
2018-04-24T03:59:29.821Z,4.00
2018-04-24T04:00:29.797Z,0.00
2018-04-24T04:01:29.778Z,0.00
2018-04-24T04:02:29.764Z,4.00
2018-04-24T04:03:29.744Z,4.00
2018-04-24T04:04:29.724Z,0.00
2018-04-24T04:05:29.708Z,4.00
2018-04-24T04:06:29.692Z,4.00
2018-04-24T04:07:29.759Z,4.00
2018-04-24T04:08:29.653Z,4.00
2018-04-24T04:09:29.639Z,8.00
2018-04-24T04:10:29.618Z,4.00
2018-04-24T04:11:29.600Z,8.00
2018-04-24T04:12:29.587Z,8.00
2018-04-24T04:13:29.563Z,4.00
2018-04-24T04:14:29.544Z,8.00
2018-04-24T04:15:29.528Z,8.00
2018-04-24T04:16:29.514Z,8.00
2018-04-24T04:17:29.497Z,12.00
2018-04-24T04:18:29.475Z,12.00
2018-04-24T04:19:29.458Z,12.00
2018-04-24T04:20:29.443Z,16.00
2018-04-24T04:21:29.423Z,16.00
2018-04-24T04:22:29.408Z,12.00
2018-04-24T04:23:29.383Z,12.00
2018-04-24T04:24:29.367Z,16.00
2018-04-24T04:25:29.346Z,16.00
2018-04-24T04:26:29.330Z,20.00
2018-04-24T04:27:29.313Z,20.00
2018-04-24T04:28:29.292Z,16.00
2018-04-24T04:29:29.276Z,20.00
2018-04-24T04:30:29.255Z,20.00
2018-04-24T04:31:29.248Z,24.00
2018-04-24T04:32:29.222Z,24.00
2018-04-24T04:33:29.202Z,28.00
2018-04-24T04:34:29.186Z,28.00
2018-04-24T04:35:29.165Z,32.00
2018-04-24T04:36:29.154Z,32.00
2018-04-24T04:37:29.134Z,32.00
2018-04-24T04:38:29.112Z,36.00
2018-04-24T04:39:29.095Z,36.00
2018-04-24T04:40:29.080Z,36.00
2018-04-24T04:41:29.109Z,36.00
2018-04-24T04:42:29.045Z,40.00
2018-04-24T04:43:29.024Z,40.00
2018-04-24T04:44:29.006Z,44.00
2018-04-24T04:45:28.995Z,48.00
2018-04-24T04:46:28.972Z,52.00
2018-04-24T04:47:28.958Z,56.00
2018-04-24T04:48:28.935Z,56.00
2018-04-24T04:49:28.918Z,56.00
2018-04-24T04:50:28.899Z,60.00
2018-04-24T04:51:28.881Z,56.00
2018-04-24T04:52:28.864Z,56.00
2018-04-24T04:53:28.854Z,56.00
2018-04-24T04:54:28.830Z,56.00
2018-04-24T04:55:28.811Z,60.00
2018-04-24T04:56:28.791Z,64.00
2018-04-24T04:57:28.775Z,64.00
2018-04-24T04:58:28.753Z,64.00
2018-04-24T04:59:28.733Z,72.00
2018-04-24T05:00:28.727Z,76.00
2018-04-24T05:01:28.708Z,80.00
2018-04-24T05:02:28.683Z,84.00
2018-04-24T05:03:28.672Z,80.00
2018-04-24T05:04:28.646Z,80.00
2018-04-24T05:05:28.633Z,76.00
2018-04-24T05:06:28.613Z,72.00
2018-04-24T05:07:28.594Z,72.00
2018-04-24T05:08:28.574Z,72.00
2018-04-24T05:09:28.559Z,72.00
2018-04-24T05:10:28.544Z,72.00
2018-04-24T05:11:28.523Z,76.00
2018-04-24T05:12:28.510Z,84.00
2018-04-24T05:13:28.485Z,84.00
2018-04-24T05:14:28.464Z,80.00
2018-04-24T05:15:28.448Z,80.00
2018-04-24T05:16:28.431Z,84.00
2018-04-24T05:17:28.414Z,88.00
2018-04-24T05:18:28.392Z,92.00
2018-04-24T05:19:28.377Z,100.00
2018-04-24T05:20:28.362Z,100.00
2018-04-24T05:21:28.346Z,100.00
2018-04-24T05:22:28.322Z,100.00
2018-04-24T05:23:28.305Z,100.00
2018-04-24T05:24:28.293Z,100.00
2018-04-24T05:25:28.276Z,104.00
2018-04-24T05:26:28.268Z,108.00
2018-04-24T05:27:28.240Z,116.00
2018-04-24T05:28:28.213Z,120.00
2018-04-24T05:29:28.204Z,124.00
2018-04-24T05:30:28.177Z,124.00
2018-04-24T05:31:28.157Z,124.00
2018-04-24T05:32:28.150Z,124.00
2018-04-24T05:33:28.127Z,120.00
2018-04-24T05:34:28.105Z,124.00
2018-04-24T05:35:28.094Z,124.00
2018-04-24T05:36:28.069Z,128.00
2018-04-24T05:37:28.057Z,128.00
2018-04-24T05:38:28.031Z,132.00
2018-04-24T05:39:28.014Z,128.00
2018-04-24T05:40:27.994Z,128.00
2018-04-24T05:41:27.976Z,132.00
2018-04-24T05:42:27.962Z,136.00
2018-04-24T05:43:27.944Z,140.00
2018-04-24T05:44:27.923Z,144.00
2018-04-24T05:45:27.963Z,148.00
2018-04-24T05:46:27.884Z,148.00
2018-04-24T05:47:27.872Z,152.00
2018-04-24T05:48:27.854Z,164.00
2018-04-24T05:49:27.831Z,176.00
2018-04-24T05:50:27.815Z,188.00
2018-04-24T05:51:27.798Z,200.00
2018-04-24T05:52:27.778Z,212.00
2018-04-24T05:53:27.763Z,224.00
2018-04-24T05:54:27.742Z,236.00
2018-04-24T05:55:27.725Z,248.00
2018-04-24T05:56:27.704Z,256.00
2018-04-24T05:57:27.691Z,260.00
2018-04-24T05:58:27.668Z,260.00
2018-04-24T05:59:27.652Z,256.00
2018-04-24T06:00:27.634Z,248.00
2018-04-24T06:01:27.620Z,240.00
2018-04-24T06:02:27.596Z,228.00
2018-04-24T06:03:27.584Z,204.00
2018-04-24T06:04:27.564Z,204.00
2018-04-24T06:05:27.541Z,220.00
2018-04-24T06:06:27.524Z,228.00
2018-04-24T06:07:27.511Z,228.00
2018-04-24T06:08:27.530Z,220.00
2018-04-24T06:09:27.473Z,212.00
2018-04-24T06:10:27.453Z,204.00
2018-04-24T06:11:27.435Z,200.00
2018-04-24T06:12:27.416Z,196.00
2018-04-24T06:13:27.399Z,200.00
2018-04-24T06:14:27.383Z,212.00
2018-04-24T06:15:27.360Z,216.00
2018-04-24T06:16:27.348Z,224.00
2018-04-24T06:17:27.325Z,236.00
2018-04-24T06:18:27.307Z,240.00
2018-04-24T06:19:27.289Z,236.00
2018-04-24T06:20:27.273Z,228.00
2018-04-24T06:21:27.253Z,220.00
2018-04-24T06:22:27.247Z,216.00
2018-04-24T06:23:27.220Z,212.00
2018-04-24T06:24:27.201Z,200.00
2018-04-24T06:25:27.184Z,192.00
2018-04-24T06:26:27.163Z,188.00
2018-04-24T06:27:27.151Z,196.00
2018-04-24T06:28:27.198Z,208.00
2018-04-24T06:29:27.113Z,216.00
2018-04-24T06:30:27.091Z,236.00
2018-04-24T06:31:27.073Z,252.00
2018-04-24T06:32:27.053Z,264.00
2018-04-24T06:33:27.037Z,280.00
2018-04-24T06:34:27.024Z,300.00
2018-04-24T06:35:27.005Z,316.00
2018-04-24T06:36:26.981Z,320.00
2018-04-24T06:37:26.972Z,312.00
2018-04-24T06:38:26.947Z,288.00
2018-04-24T06:39:26.938Z,264.00
2018-04-24T06:40:26.913Z,248.00
2018-04-24T06:41:26.894Z,232.00
2018-04-24T06:42:26.874Z,228.00
2018-04-24T06:43:26.874Z,232.00
2018-04-24T06:44:26.842Z,240.00
2018-04-24T06:45:26.818Z,256.00
2018-04-24T06:46:26.799Z,272.00
2018-04-24T06:47:26.787Z,284.00
2018-04-24T06:48:26.772Z,284.00
2018-04-24T06:49:26.752Z,280.00
2018-04-24T06:50:26.729Z,280.00
2018-04-24T06:51:26.710Z,276.00
2018-04-24T06:52:26.699Z,272.00
2018-04-24T06:53:26.675Z,264.00
2018-04-24T06:54:26.656Z,272.00
2018-04-24T06:55:26.642Z,288.00
2018-04-24T06:56:26.621Z,304.00
2018-04-24T06:57:26.610Z,316.00
2018-04-24T06:58:26.583Z,296.00
2018-04-24T06:59:26.573Z,240.00
2018-04-24T07:00:26.550Z,196.00
2018-04-24T07:01:26.529Z,188.00
2018-04-24T07:02:26.514Z,192.00
2018-04-24T07:03:26.499Z,216.00
2018-04-24T07:04:26.475Z,252.00
2018-04-24T07:05:26.459Z,288.00
2018-04-24T07:06:26.460Z,316.00
2018-04-24T07:07:26.421Z,376.00
2018-04-24T07:08:26.404Z,408.00
2018-04-24T07:09:26.389Z,400.00
2018-04-24T07:10:26.365Z,416.00
2018-04-24T07:11:26.354Z,396.00
2018-04-24T07:12:26.337Z,372.00
2018-04-24T07:13:26.317Z,340.00
2018-04-24T07:14:26.298Z,288.00
2018-04-24T07:15:26.278Z,284.00
2018-04-24T07:16:26.262Z,316.00
2018-04-24T07:17:26.240Z,340.00
2018-04-24T07:18:26.226Z,348.00
2018-04-24T07:19:26.208Z,344.00
2018-04-24T07:20:26.186Z,384.00
2018-04-24T07:21:26.180Z,404.00
2018-04-24T07:22:26.154Z,420.00
2018-04-24T07:23:26.133Z,436.00
2018-04-24T07:24:26.121Z,448.00
2018-04-24T07:25:26.101Z,448.00
2018-04-24T07:26:26.082Z,436.00
2018-04-24T07:27:26.063Z,424.00
2018-04-24T07:28:26.045Z,428.00
2018-04-24T07:29:26.025Z,436.00
2018-04-24T07:30:26.011Z,468.00
2018-04-24T07:31:25.993Z,488.00
2018-04-24T07:32:25.971Z,508.00
2018-04-24T07:33:25.953Z,500.00
2018-04-24T07:34:25.949Z,476.00
2018-04-24T07:35:25.918Z,444.00
2018-04-24T07:36:25.902Z,424.00
2018-04-24T07:37:25.884Z,404.00
2018-04-24T07:38:25.863Z,384.00
2018-04-24T07:39:25.846Z,396.00
2018-04-24T07:40:25.827Z,428.00
2018-04-24T07:41:25.819Z,456.00
2018-04-24T07:42:25.790Z,480.00
2018-04-24T07:43:25.775Z,480.00
2018-04-24T07:44:25.766Z,472.00
2018-04-24T07:45:25.739Z,508.00
2018-04-24T07:46:25.724Z,556.00
2018-04-24T07:47:25.701Z,592.00
2018-04-24T07:48:25.685Z,616.00
2018-04-24T07:49:25.666Z,624.00
2018-04-24T07:50:25.647Z,628.00
2018-04-24T07:51:25.634Z,596.00
2018-04-24T07:52:25.616Z,572.00
2018-04-24T07:53:25.595Z,524.00
2018-04-24T07:54:25.573Z,492.00
2018-04-24T07:55:25.568Z,480.00
2018-04-24T07:56:25.540Z,480.00
2018-04-24T07:57:25.520Z,500.00
2018-04-24T07:58:25.503Z,532.00
2018-04-24T07:59:25.495Z,536.00
2018-04-24T08:00:25.468Z,548.00
2018-04-24T08:01:25.453Z,544.00
2018-04-24T08:02:25.433Z,560.00
2018-04-24T08:03:25.424Z,580.00
2018-04-24T08:04:25.399Z,576.00
2018-04-24T08:05:25.381Z,600.00
2018-04-24T08:06:25.368Z,600.00
2018-04-24T08:07:25.343Z,572.00
2018-04-24T08:08:25.324Z,556.00
2018-04-24T08:09:25.310Z,528.00
2018-04-24T08:10:25.294Z,488.00
2018-04-24T08:11:25.287Z,552.00
2018-04-24T08:12:25.253Z,604.00
2018-04-24T08:13:25.238Z,636.00
2018-04-24T08:14:25.225Z,648.00
2018-04-24T08:15:25.204Z,628.00
2018-04-24T08:16:25.183Z,616.00
2018-04-24T08:17:25.166Z,600.00
2018-04-24T08:18:25.150Z,548.00
2018-04-24T08:19:25.133Z,492.00
2018-04-24T08:20:25.124Z,480.00
2018-04-24T08:21:25.098Z,488.00
2018-04-24T08:22:25.080Z,500.00
2018-04-24T08:23:25.062Z,504.00
2018-04-24T08:24:25.043Z,508.00
2018-04-24T08:25:25.025Z,496.00
2018-04-24T08:26:25.010Z,440.00
2018-04-24T08:27:24.994Z,400.00
2018-04-24T08:28:24.973Z,380.00
2018-04-24T08:29:24.966Z,356.00
2018-04-24T08:30:24.958Z,336.00
2018-04-24T08:31:24.923Z,324.00
2018-04-24T08:32:24.903Z,328.00
2018-04-24T08:33:24.891Z,340.00
2018-04-24T08:34:24.875Z,360.00
2018-04-24T08:35:24.851Z,372.00
2018-04-24T08:36:24.836Z,392.00
2018-04-24T08:37:24.820Z,400.00
2018-04-24T08:38:24.800Z,420.00
2018-04-24T08:39:24.785Z,428.00
2018-04-24T08:40:24.763Z,416.00
2018-04-24T08:41:24.745Z,432.00
2018-04-24T08:42:24.736Z,452.00
2018-04-24T08:43:24.713Z,464.00
2018-04-24T08:44:24.693Z,480.00
2018-04-24T08:45:24.679Z,472.00
2018-04-24T08:46:24.661Z,480.00
2018-04-24T08:47:24.644Z,500.00
2018-04-24T08:48:24.627Z,500.00
2018-04-24T08:49:24.613Z,516.00
2018-04-24T08:50:24.590Z,500.00
2018-04-24T08:51:24.574Z,476.00
2018-04-24T08:52:24.561Z,480.00
2018-04-24T08:53:24.536Z,504.00
2018-04-24T08:54:24.525Z,540.00
2018-04-24T08:55:24.502Z,564.00
2018-04-24T08:56:24.532Z,560.00
2018-04-24T08:57:24.477Z,568.00
2018-04-24T08:58:24.450Z,584.00
2018-04-24T08:59:24.437Z,592.00
2018-04-24T09:00:24.418Z,580.00
2018-04-24T09:01:24.414Z,568.00
2018-04-24T09:02:24.383Z,588.00
2018-04-24T09:03:24.377Z,576.00
2018-04-24T09:04:24.350Z,568.00
2018-04-24T09:05:24.330Z,536.00
2018-04-24T09:06:24.308Z,540.00
2018-04-24T09:07:24.291Z,552.00
2018-04-24T09:08:24.277Z,564.00
2018-04-24T09:09:24.261Z,620.00
2018-04-24T09:10:24.243Z,676.00
2018-04-24T09:11:24.225Z,664.00
2018-04-24T09:12:24.206Z,620.00
2018-04-24T09:13:24.191Z,648.00
2018-04-24T09:14:24.175Z,664.00
2018-04-24T09:15:24.154Z,696.00
2018-04-24T09:16:24.141Z,728.00
2018-04-24T09:17:24.118Z,708.00
2018-04-24T09:18:24.107Z,660.00
2018-04-24T09:19:24.083Z,680.00
2018-04-24T09:20:24.064Z,752.00
2018-04-24T09:21:24.047Z,812.00
2018-04-24T09:22:24.039Z,768.00
2018-04-24T09:23:24.012Z,652.00
2018-04-24T09:24:23.993Z,600.00
2018-04-24T09:25:23.977Z,628.00
2018-04-24T09:26:23.960Z,684.00
2018-04-24T09:27:23.940Z,780.00
2018-04-24T09:28:23.924Z,800.00
2018-04-24T09:29:23.907Z,752.00
2018-04-24T09:30:23.888Z,740.00
2018-04-24T09:31:23.875Z,668.00
2018-04-24T09:32:23.851Z,664.00
2018-04-24T09:33:23.943Z,704.00
2018-04-24T09:34:23.818Z,692.00
2018-04-24T09:35:23.800Z,664.00
2018-04-24T09:36:23.785Z,676.00
2018-04-24T09:37:23.769Z,720.00
2018-04-24T09:38:23.749Z,680.00
2018-04-24T09:39:23.730Z,644.00
2018-04-24T09:40:23.715Z,688.00
2018-04-24T09:41:23.698Z,708.00
2018-04-24T09:42:23.682Z,712.00
2018-04-24T09:43:23.662Z,696.00
2018-04-24T09:44:23.645Z,692.00
2018-04-24T09:45:23.629Z,604.00
2018-04-24T09:46:23.612Z,612.00
2018-04-24T09:47:23.594Z,588.00
2018-04-24T09:48:23.583Z,532.00
2018-04-24T09:49:23.573Z,504.00
2018-04-24T09:50:23.541Z,448.00
2018-04-24T09:51:23.583Z,420.00
2018-04-24T09:52:23.510Z,448.00
2018-04-24T09:53:23.491Z,440.00
2018-04-24T09:54:23.477Z,436.00
2018-04-24T09:55:23.454Z,452.00
2018-04-24T09:56:23.441Z,436.00
2018-04-24T09:57:23.423Z,460.00
2018-04-24T09:58:23.419Z,512.00
2018-04-24T09:59:23.387Z,616.00
2018-04-24T10:00:23.373Z,744.00
2018-04-24T10:01:23.362Z,804.00
2018-04-24T10:02:23.337Z,760.00
2018-04-24T10:03:23.321Z,788.00
2018-04-24T10:04:23.305Z,896.00
2018-04-24T10:05:23.289Z,960.00
2018-04-24T10:06:23.270Z,860.00
2018-04-24T10:07:23.252Z,848.00
2018-04-24T10:08:23.236Z,852.00
2018-04-24T10:09:23.218Z,804.00
2018-04-24T10:10:23.197Z,744.00
2018-04-24T10:11:23.183Z,708.00
2018-04-24T10:12:23.170Z,684.00
2018-04-24T10:13:23.160Z,680.00
2018-04-24T10:14:23.131Z,688.00
2018-04-24T10:15:23.113Z,664.00
2018-04-24T10:16:23.103Z,624.00
2018-04-24T10:17:23.089Z,568.00
2018-04-24T10:18:23.063Z,532.00
2018-04-24T10:19:23.046Z,548.00
2018-04-24T10:20:23.029Z,592.00
2018-04-24T10:21:23.013Z,604.00
2018-04-24T10:22:22.993Z,616.00
2018-04-24T10:23:22.976Z,652.00
2018-04-24T10:24:22.961Z,664.00
2018-04-24T10:25:22.942Z,660.00
2018-04-24T10:26:22.926Z,656.00
2018-04-24T10:27:23.006Z,652.00
2018-04-24T10:28:22.894Z,672.00
2018-04-24T10:29:22.879Z,664.00
2018-04-24T10:30:22.855Z,640.00
2018-04-24T10:31:22.842Z,644.00
2018-04-24T10:32:22.826Z,616.00
2018-04-24T10:33:22.808Z,612.00
2018-04-24T10:34:22.794Z,612.00
2018-04-24T10:35:22.767Z,620.00
2018-04-24T10:36:22.751Z,640.00
2018-04-24T10:37:22.801Z,672.00
2018-04-24T10:38:22.731Z,692.00
2018-04-24T10:39:22.702Z,668.00
2018-04-24T10:40:22.693Z,616.00
2018-04-24T10:41:22.666Z,644.00
2018-04-24T10:42:22.650Z,704.00
2018-04-24T10:43:22.641Z,744.00
2018-04-24T10:44:22.618Z,732.00
2018-04-24T10:45:22.602Z,728.00
2018-04-24T10:46:22.585Z,744.00
2018-04-24T10:47:22.565Z,800.00
2018-04-24T10:48:22.548Z,752.00
2018-04-24T10:49:22.535Z,792.00
2018-04-24T10:50:22.511Z,668.00
2018-04-24T10:51:22.501Z,676.00
2018-04-24T10:52:22.482Z,676.00
2018-04-24T10:53:22.461Z,612.00
2018-04-24T10:54:22.443Z,604.00
2018-04-24T10:55:22.435Z,644.00
2018-04-24T10:56:22.428Z,752.00
2018-04-24T10:57:22.399Z,856.00
2018-04-24T10:58:22.375Z,864.00
2018-04-24T10:59:22.393Z,832.00
2018-04-24T11:00:22.352Z,764.00
2018-04-24T11:01:22.325Z,800.00
2018-04-24T11:02:22.308Z,880.00
2018-04-24T11:03:22.300Z,848.00
2018-04-24T11:04:22.274Z,1004.00
2018-04-24T11:05:22.258Z,980.00
2018-04-24T11:06:22.238Z,964.00
2018-04-24T11:07:22.225Z,884.00
2018-04-24T11:08:22.208Z,900.00
2018-04-24T11:09:22.192Z,836.00
2018-04-24T11:10:22.170Z,844.00
2018-04-24T11:11:22.153Z,764.00
2018-04-24T11:12:22.140Z,728.00
2018-04-24T11:13:22.123Z,680.00
2018-04-24T11:14:22.103Z,696.00
2018-04-24T11:15:22.088Z,704.00
2018-04-24T11:16:22.065Z,744.00
2018-04-24T11:17:22.050Z,692.00
2018-04-24T11:18:22.034Z,696.00
2018-04-24T11:19:22.028Z,680.00
2018-04-24T11:20:22.001Z,756.00
2018-04-24T11:21:22.001Z,720.00
2018-04-24T11:22:21.968Z,740.00
2018-04-24T11:23:21.948Z,744.00
2018-04-24T11:24:21.933Z,636.00
2018-04-24T11:25:21.919Z,580.00
2018-04-24T11:26:21.896Z,588.00
2018-04-24T11:27:21.881Z,700.00
2018-04-24T11:28:21.860Z,776.00
2018-04-24T11:29:21.847Z,876.00
2018-04-24T11:30:21.858Z,868.00
2018-04-24T11:31:21.812Z,912.00
2018-04-24T11:32:21.887Z,808.00
2018-04-24T11:33:21.787Z,744.00
2018-04-24T11:34:21.829Z,744.00
2018-04-24T11:35:21.743Z,700.00
2018-04-24T11:36:21.724Z,736.00
2018-04-24T11:37:21.708Z,796.00
2018-04-24T11:38:21.701Z,816.00
2018-04-24T11:39:21.677Z,808.00
2018-04-24T11:40:21.655Z,896.00
2018-04-24T11:41:21.747Z,808.00
2018-04-24T11:42:21.624Z,776.00
2018-04-24T11:43:21.611Z,752.00
2018-04-24T11:44:21.591Z,724.00
2018-04-24T11:45:21.572Z,804.00
2018-04-24T11:46:21.564Z,752.00
2018-04-24T11:47:21.543Z,624.00
2018-04-24T11:48:21.526Z,752.00
2018-04-24T11:49:21.508Z,776.00
2018-04-24T11:50:21.486Z,744.00
2018-04-24T11:51:21.475Z,728.00
2018-04-24T11:52:21.456Z,644.00
2018-04-24T11:53:21.441Z,624.00
2018-04-24T11:54:21.430Z,648.00
2018-04-24T11:55:21.410Z,652.00
2018-04-24T11:56:21.390Z,620.00
2018-04-24T11:57:21.366Z,644.00
2018-04-24T11:58:21.351Z,708.00
2018-04-24T11:59:21.331Z,768.00
2018-04-24T12:00:21.318Z,780.00
2018-04-24T12:01:21.306Z,764.00
2018-04-24T12:02:21.283Z,768.00
2018-04-24T12:03:21.263Z,768.00
2018-04-24T12:04:21.248Z,668.00
2018-04-24T12:05:21.231Z,628.00
2018-04-24T12:06:21.212Z,624.00
2018-04-24T12:07:21.201Z,632.00
2018-04-24T12:08:21.183Z,592.00
2018-04-24T12:09:21.168Z,556.00
2018-04-24T12:10:21.152Z,548.00
2018-04-24T12:11:21.133Z,544.00
2018-04-24T12:12:21.114Z,564.00
2018-04-24T12:13:21.099Z,576.00
2018-04-24T12:14:21.089Z,592.00
2018-04-24T12:15:21.062Z,688.00
2018-04-24T12:16:21.059Z,868.00
2018-04-24T12:17:21.035Z,772.00
2018-04-24T12:18:21.010Z,684.00
2018-04-24T12:19:20.994Z,628.00
2018-04-24T12:20:20.983Z,612.00
2018-04-24T12:21:20.961Z,616.00
2018-04-24T12:22:20.951Z,588.00
2018-04-24T12:23:20.931Z,568.00
2018-04-24T12:24:20.938Z,612.00
2018-04-24T12:25:20.895Z,704.00
2018-04-24T12:26:20.878Z,720.00
2018-04-24T12:27:20.878Z,772.00
2018-04-24T12:28:20.845Z,796.00
2018-04-24T12:29:20.831Z,764.00
2018-04-24T12:30:20.815Z,748.00
2018-04-24T12:31:20.794Z,736.00
2018-04-24T12:32:20.778Z,712.00
2018-04-24T12:33:20.771Z,816.00
2018-04-24T12:34:20.743Z,988.00
2018-04-24T12:35:20.742Z,1164.00
2018-04-24T12:36:20.726Z,1212.00
2018-04-24T12:37:20.693Z,1300.00
2018-04-24T12:38:20.674Z,1128.00
2018-04-24T12:39:20.658Z,1028.00
2018-04-24T12:40:20.641Z,1008.00
2018-04-24T12:41:20.628Z,956.00
2018-04-24T12:42:20.614Z,900.00
2018-04-24T12:43:20.594Z,796.00
2018-04-24T12:44:20.573Z,672.00
2018-04-24T12:45:20.561Z,660.00
2018-04-24T12:46:20.558Z,780.00